EIDW

Dublin Airport

Code ICAO EIDW
Code IATA DUB
Nom Dublin Airport
Emplacement Dublin, Leinster, IE
Élévation 242 pieds / 73.8 mètres
Latitude 53.42129898
Longitude -6.27007008
METAR EIDW 260400Z 20011G21KT 170V240 9999 -RA FEW009 SCT025 BKN032 11/10 Q1009 NOSIG
Informations extras Afficher cartes et CFS
Afficher NOTAMS
Piste Longueur Largeur Surface Élévation
10 8652 ft 148 ft CON 242 ft
11 4393 ft 200 ft ASP 217 ft
16 6798 ft 200 ft ASP 217 ft
28 8652 ft 148 ft CON 202 ft
29 4393 ft 200 ft ASP 216 ft
34 6798 ft 200 ft ASP 202 ft